Time;durP1;ratioP1;P1;durP2;ratioP2;P2;SDS_P1;SDS_P2;PMS_P1;PMS_P2;Temp;Humidity;BMP_temperature;BMP_pressure;BME280_temperature;BME280_humidity;BME280_pressure;Samples;Min_cycle;Max_cycle;Signal;HPM_P1;HPM_P2
2021/04/18 00:00:19;;;;;;;25.35;20.23;;;;;;;6.53;100.00;101277.35;1652112;86;21109;-88
2021/04/18 00:02:51;;;;;;;25.57;19.87;;;;;;;6.43;100.00;101282.59;1647357;86;21196;-88
2021/04/18 00:05:26;;;;;;;24.45;18.45;;;;;;;6.36;100.00;101281.21;1652097;86;21220;-88
2021/04/18 00:08:02;;;;;;;25.75;18.95;;;;;;;6.31;100.00;101280.95;1652233;86;21183;-88
2021/04/18 00:10:40;;;;;;;26.57;19.48;;;;;;;6.28;100.00;101281.55;1652173;86;21378;-88
2021/04/18 00:13:12;;;;;;;24.47;18.80;;;;;;;6.24;100.00;101279.56;1649931;86;21137;-88
2021/04/18 00:15:42;;;;;;;26.75;19.65;;;;;;;6.22;100.00;101276.67;1652105;86;21905;-88
2021/04/18 00:18:19;;;;;;;24.60;18.50;;;;;;;6.21;100.00;101277.58;1645592;86;21650;-88
2021/04/18 00:20:47;;;;;;;26.75;18.30;;;;;;;6.21;100.00;101274.52;1652235;86;21216;-88
2021/04/18 00:23:15;;;;;;;24.77;18.57;;;;;;;6.23;100.00;101273.18;1652186;86;22084;-88
2021/04/18 00:25:43;;;;;;;25.60;19.15;;;;;;;6.25;100.00;101272.20;1643143;86;21192;-88
2021/04/18 00:28:11;;;;;;;26.97;19.45;;;;;;;6.25;100.00;101263.14;1625430;88;21167;-88
2021/04/18 00:30:39;;;;;;;26.25;20.17;;;;;;;6.27;100.00;101269.53;1625411;88;21218;-88
2021/04/18 00:33:08;;;;;;;29.42;22.15;;;;;;;6.25;100.00;101265.73;1622602;88;21116;-88
2021/04/18 00:35:36;;;;;;;28.38;20.68;;;;;;;6.23;100.00;101262.37;1625602;88;21503;-88
2021/04/18 00:38:04;;;;;;;25.92;19.70;;;;;;;6.21;100.00;101264.65;1625426;88;21172;-88
2021/04/18 00:40:33;;;;;;;27.50;20.55;;;;;;;6.18;100.00;101263.05;1625493;88;21255;-88
2021/04/18 00:43:10;;;;;;;24.80;19.27;;;;;;;6.17;100.00;101269.12;1623967;88;21215;-88
2021/04/18 00:45:39;;;;;;;27.87;19.57;;;;;;;6.17;100.00;101267.01;1625577;88;21175;-88
2021/04/18 00:48:09;;;;;;;25.80;19.15;;;;;;;6.16;100.00;101266.16;1627277;87;22170;-88
2021/04/18 00:50:45;;;;;;;26.73;20.43;;;;;;;6.13;100.00;101266.28;1639125;87;21171;-88
2021/04/18 00:53:14;;;;;;;25.32;19.73;;;;;;;6.09;100.00;101272.52;1639113;87;21199;-88
2021/04/18 00:55:48;;;;;;;24.20;20.12;;;;;;;6.04;100.00;101266.73;1655977;85;21190;-87
2021/04/18 00:58:16;;;;;;;26.80;20.97;;;;;;;5.99;100.00;101265.17;1694478;84;21187;-88
2021/04/18 01:00:52;;;;;;;26.80;19.02;;;;;;;5.98;100.00;101268.63;1686744;84;21449;-88
2021/04/18 01:03:24;;;;;;;25.60;18.10;;;;;;;5.96;100.00;101257.55;1686747;85;21171;-88
2021/04/18 01:05:53;;;;;;;24.25;17.55;;;;;;;5.96;100.00;101260.13;1686806;83;21567;-88
2021/04/18 01:08:21;;;;;;;22.15;17.85;;;;;;;5.97;100.00;101269.53;1686754;85;21564;-88
2021/04/18 01:10:51;;;;;;;26.55;19.62;;;;;;;5.98;100.00;101271.22;1693750;84;21208;-85
2021/04/18 01:13:20;;;;;;;24.27;19.00;;;;;;;5.98;100.00;101267.34;1664008;84;21460;-85
2021/04/18 01:15:50;;;;;;;24.18;18.92;;;;;;;5.97;100.00;101265.66;1639560;85;21165;-87
2021/04/18 01:18:19;;;;;;;23.20;18.40;;;;;;;5.96;100.00;101266.59;1630849;86;21211;-87
2021/04/18 01:21:06;;;;;;;23.50;18.50;;;;;;;5.96;100.00;101266.59;1672492;84;21231;-87
2021/04/18 01:23:53;;;;;;;23.32;17.95;;;;;;;5.96;100.00;101264.01;1639166;87;21184;-87
2021/04/18 01:27:06;;;;;;;24.23;17.95;;;;;;;6.00;100.00;101261.69;1852727;77;22325;-86
2021/04/18 01:29:39;;;;;;;22.77;18.12;;;;;;;5.99;100.00;101260.00;1815426;78;21153;-86
2021/04/18 01:32:08;;;;;;;28.00;19.05;;;;;;;6.02;100.00;101259.48;1846127;77;21182;-87
2021/04/18 01:34:44;;;;;;;22.93;18.50;;;;;;;6.03;100.00;101254.70;1846128;77;21127;-87
2021/04/18 01:37:14;;;;;;;25.52;19.42;;;;;;;6.04;100.00;101257.21;1842969;77;21142;-87
2021/04/18 01:39:42;;;;;;;25.90;18.95;;;;;;;6.04;100.00;101254.63;1820183;77;21171;-87
2021/04/18 01:42:12;;;;;;;24.63;19.05;;;;;;;6.04;100.00;101252.04;1772413;81;21366;-87
2021/04/18 01:44:42;;;;;;;22.15;17.42;;;;;;;6.04;100.00;101250.75;1792166;79;21193;-87
2021/04/18 01:47:14;;;;;;;23.87;18.67;;;;;;;6.04;100.00;101248.62;1779099;79;21154;-87
2021/04/18 01:49:43;;;;;;;25.62;19.98;;;;;;;6.04;100.00;101248.62;1812854;79;21179;-87
2021/04/18 01:52:40;;;;;;;28.17;21.12;;;;;;;6.03;100.00;101246.48;1812837;78;21574;-87
2021/04/18 01:55:10;;;;;;;25.55;20.48;;;;;;;6.02;100.00;101245.27;1812783;78;21123;-87
2021/04/18 01:57:38;;;;;;;25.52;20.20;;;;;;;6.00;100.00;101244.05;1812809;79;21339;-87
2021/04/18 02:00:13;;;;;;;24.47;19.87;;;;;;;5.97;100.00;101241.56;1816806;77;21124;-86
2021/04/18 02:02:42;;;;;;;25.27;19.50;;;;;;;5.93;100.00;101243.45;1812809;79;21095;-86
2021/04/18 02:05:20;;;;;;;;;;;;;;;5.90;100.00;101241.00;1813013;77;21079;-86
2021/04/18 02:07:49;;;;;;;24.75;17.32;;;;;;;5.87;100.00;101243.73;1813018;79;20267;-86
2021/04/18 02:10:18;;;;;;;26.27;18.62;;;;;;;5.84;100.00;101243.44;1812831;79;21352;-86
2021/04/18 02:12:47;;;;;;;23.22;17.92;;;;;;;5.82;100.00;101241.80;1812800;78;21186;-86
2021/04/18 02:15:16;;;;;;;25.32;19.62;;;;;;;5.79;100.00;101244.54;1847722;77;21135;-86
2021/04/18 02:17:45;;;;;;;27.75;19.80;;;;;;;5.74;100.00;101246.47;1834875;77;21147;-86
2021/04/18 02:20:22;;;;;;;27.70;20.60;;;;;;;5.69;100.00;101248.83;1788290;79;21575;-86
2021/04/18 02:22:50;;;;;;;24.15;18.82;;;;;;;5.65;100.00;101245.97;1773955;80;21282;-86
2021/04/18 02:25:19;;;;;;;25.90;20.02;;;;;;;5.65;100.00;101245.14;1787592;80;21260;-86
2021/04/18 02:27:48;;;;;;;26.02;19.00;;;;;;;5.64;100.00;101248.20;1775173;80;21130;-86
2021/04/18 02:30:22;;;;;;;24.55;17.70;;;;;;;5.63;100.00;101252.12;1794676;79;21560;-87
2021/04/18 02:32:51;;;;;;;23.07;17.77;;;;;;;5.62;100.00;101252.59;1781613;80;21186;-87
2021/04/18 02:35:24;;;;;;;20.45;16.70;;;;;;;5.58;100.00;101248.91;1798925;79;21331;-87
2021/04/18 02:37:52;;;;;;;22.48;17.57;;;;;;;5.54;100.00;101245.62;1781123;80;21229;-87
2021/04/18 02:40:21;;;;;;;19.60;16.25;;;;;;;5.50;100.00;101249.23;1798399;79;21176;-87
2021/04/18 02:42:52;;;;;;;24.52;18.00;;;;;;;5.41;100.00;101247.08;1780970;79;21139;-87
2021/04/18 02:45:51;;;;;;;25.33;18.03;;;;;;;5.31;100.00;101244.03;1792345;79;21136;-87
2021/04/18 02:48:24;;;;;;;25.55;17.62;;;;;;;5.19;100.00;101243.67;1770601;80;21780;-88
2021/04/18 02:50:59;;;;;;;23.57;17.25;;;;;;;5.12;100.00;101239.67;1787422;79;21133;-86
2021/04/18 02:53:29;;;;;;;23.73;18.48;;;;;;;5.05;100.00;101248.11;1770589;80;21183;-87
2021/04/18 02:55:58;;;;;;;20.65;16.42;;;;;;;4.94;100.00;101245.59;1787414;80;21140;-87
2021/04/18 02:58:37;;;;;;;21.77;16.77;;;;;;;4.94;100.00;101245.59;1769636;81;21151;-87
2021/04/18 03:01:12;;;;;;;21.00;16.05;;;;;;;4.91;100.00;101249.14;1782913;79;21448;-87
2021/04/18 03:03:42;;;;;;;24.47;17.48;;;;;;;4.91;100.00;101250.44;1773722;79;21072;-86
2021/04/18 03:06:13;;;;;;;21.87;17.35;;;;;;;4.90;100.00;101247.46;1765674;81;21131;-86
2021/04/18 03:08:44;;;;;;;20.90;15.95;;;;;;;4.89;100.00;101246.61;1768720;79;21172;-86
2021/04/18 03:11:14;;;;;;;21.35;16.57;;;;;;;4.87;100.00;101248.86;1775649;80;21168;-86
2021/04/18 03:13:46;;;;;;;25.35;18.25;;;;;;;4.88;100.00;101253.13;1797718;79;21353;-88
2021/04/18 03:16:14;;;;;;;21.52;17.60;;;;;;;4.84;100.00;101246.43;1775781;80;21152;-87
2021/04/18 03:18:44;;;;;;;24.45;18.15;;;;;;;4.78;100.00;101244.94;1788940;79;21081;-86
2021/04/18 03:21:12;;;;;;;20.75;16.62;;;;;;;4.77;100.00;101250.16;1757240;80;21174;-87
2021/04/18 03:23:46;;;;;;;20.27;16.70;;;;;;;4.72;100.00;101250.34;1783489;79;21642;-87
2021/04/18 03:26:15;;;;;;;20.00;15.45;;;;;;;4.63;100.00;101252.00;1789296;78;21608;-87
2021/04/18 03:28:51;;;;;;;20.90;16.15;;;;;;;4.63;100.00;101252.00;1769146;79;21572;-87
2021/04/18 03:31:20;;;;;;;25.32;17.32;;;;;;;4.58;100.00;101244.45;1708731;84;21184;-86
2021/04/18 03:33:50;;;;;;;20.57;15.78;;;;;;;4.58;100.00;101250.89;1734928;82;21144;-86
2021/04/18 03:36:22;;;;;;;21.90;15.53;;;;;;;4.49;100.00;101253.37;1738927;82;21198;-86
2021/04/18 03:38:51;;;;;;;19.60;14.93;;;;;;;4.49;100.00;101253.37;1771868;79;21340;-86
2021/04/18 03:41:23;;;;;;;27.90;16.00;;;;;;;4.51;100.00;101253.33;1798842;78;22321;-87
2021/04/18 03:43:51;;;;;;;31.95;15.63;;;;;;;4.53;100.00;101252.36;1799322;79;21375;-87
2021/04/18 03:46:27;;;;;;;24.85;16.37;;;;;;;5.47;100.00;101246.80;1738097;81;21160;-87
2021/04/18 03:49:04;;;;;;;21.00;16.50;;;;;;;5.47;100.00;101246.80;1738585;81;21200;-88
2021/04/18 03:51:34;;;;;;;29.67;22.82;;;;;;;5.72;100.00;101241.84;1799659;79;21686;-88
2021/04/18 03:54:04;;;;;;;32.65;20.37;;;;;;;5.66;100.00;101241.66;1733748;82;21163;-88
2021/04/18 03:56:39;;;;;;;24.02;19.92;;;;;;;5.60;100.00;101237.59;1738379;82;21136;-88
2021/04/18 03:59:08;;;;;;;22.27;18.37;;;;;;;5.53;100.00;101242.66;1804026;79;21116;-88
2021/04/18 04:01:37;;;;;;;24.67;18.65;;;;;;;5.52;100.00;101242.27;1738293;82;21566;-88
2021/04/18 04:04:08;;;;;;;24.60;17.83;;;;;;;5.53;100.00;101247.35;1804657;79;21148;-86
2021/04/18 04:06:38;;;;;;;25.20;15.65;;;;;;;5.58;100.00;101239.41;1733277;82;21224;-87
2021/04/18 04:09:06;;;;;;;20.45;15.78;;;;;;;5.65;100.00;101240.80;1803894;79;21109;-86
2021/04/18 04:11:38;;;;;;;44.58;15.88;;;;;;;5.72;100.00;101235.39;1733978;81;21192;-86
2021/04/18 04:14:08;;;;;;;32.30;16.95;;;;;;;5.87;100.00;101235.98;1799797;79;21168;-86
2021/04/18 04:16:39;;;;;;;32.53;18.57;;;;;;;6.44;100.00;101232.53;1744326;81;21353;-85
2021/04/18 04:19:07;;;;;;;27.45;16.10;;;;;;;6.92;100.00;101232.34;1755025;81;21159;-87
2021/04/18 04:21:48;;;;;;;22.58;15.80;;;;;;;7.25;100.00;101230.70;1872431;75;22272;-87
2021/04/18 04:24:35;;;;;;;28.17;14.78;;;;;;;7.40;100.00;101228.61;1839323;77;21116;-86
2021/04/18 04:27:04;;;;;;;30.68;14.35;;;;;;;7.57;100.00;101223.83;1838558;77;21413;-86
2021/04/18 04:29:33;;;;;;;24.57;14.83;;;;;;;7.65;100.00;101219.55;1756773;80;21191;-86
2021/04/18 04:32:01;;;;;;;16.67;13.65;;;;;;;7.76;100.00;101223.34;1773034;79;21195;-85
2021/04/18 04:34:30;;;;;;;14.45;12.88;;;;;;;7.84;100.00;101223.29;1771175;80;21536;-85
2021/04/18 04:37:00;;;;;;;15.60;12.65;;;;;;;7.84;100.00;101223.29;1770193;79;21448;-85
2021/04/18 04:39:28;;;;;;;15.58;12.65;;;;;;;7.82;100.00;101224.30;1771667;80;21675;-85
2021/04/18 04:41:56;;;;;;;15.13;12.82;;;;;;;7.82;100.00;101223.00;1773777;79;21123;-85
2021/04/18 04:44:28;;;;;;;15.35;13.43;;;;;;;7.81;100.00;101228.62;1771595;80;21131;-85
2021/04/18 04:46:57;;;;;;;14.13;11.88;;;;;;;7.83;100.00;101227.27;1757501;80;21515;-86
2021/04/18 04:49:25;;;;;;;13.72;12.03;;;;;;;7.82;100.00;101229.01;1771509;79;21595;-85
2021/04/18 04:51:53;;;;;;;13.65;12.20;;;;;;;7.86;100.00;101230.53;1771478;79;21547;-86
2021/04/18 04:54:21;;;;;;;15.70;12.75;;;;;;;7.89;100.00;101227.75;1762391;79;21157;-85
2021/04/18 04:56:51;;;;;;;14.98;13.25;;;;;;;7.95;100.00;101233.08;1757871;80;21709;-86
2021/04/18 04:59:21;;;;;;;17.00;13.40;;;;;;;8.00;100.00;101228.94;1769283;79;21187;-86
2021/04/18 05:01:49;;;;;;;14.40;12.88;;;;;;;8.07;100.00;101232.88;1765250;79;21701;-86
2021/04/18 05:04:17;;;;;;;14.90;13.20;;;;;;;8.16;100.00;101230.25;1757892;80;22316;-86
2021/04/18 05:06:45;;;;;;;13.32;11.93;;;;;;;8.20;100.00;101227.41;1767662;79;21083;-86
2021/04/18 05:09:13;;;;;;;15.72;12.75;;;;;;;8.26;100.00;101226.67;1778536;79;21126;-86
2021/04/18 05:11:42;;;;;;;16.55;13.68;;;;;;;8.33;100.00;101225.41;1762217;79;21161;-86
2021/04/18 05:14:10;;;;;;;15.98;14.00;;;;;;;8.41;100.00;101224.99;1749891;80;21158;-86
2021/04/18 05:16:39;;;;;;;17.57;14.38;;;;;;;8.46;100.00;101225.09;1749898;82;21366;-86
2021/04/18 05:19:07;;;;;;;16.30;14.15;;;;;;;8.53;100.00;101221.72;1749856;80;21114;-87
2021/04/18 05:21:36;;;;;;;21.75;16.45;;;;;;;8.61;100.00;101217.41;1757059;81;21513;-87
2021/04/18 05:24:06;;;;;;;20.12;15.95;;;;;;;8.69;100.00;101219.09;1759068;81;21177;-87
2021/04/18 05:26:34;;;;;;;18.12;15.32;;;;;;;8.78;100.00;101221.61;1759234;80;21193;-86
2021/04/18 05:29:03;;;;;;;20.15;16.42;;;;;;;8.86;100.00;101214.66;1759038;80;21263;-87
2021/04/18 05:31:31;;;;;;;19.90;16.27;;;;;;;8.93;100.00;101213.41;1758837;80;21157;-87
2021/04/18 05:33:59;;;;;;;22.95;16.48;;;;;;;8.98;100.00;101212.19;1758460;80;21153;-87
2021/04/18 05:36:28;;;;;;;19.62;15.72;;;;;;;9.07;100.00;101213.87;1758397;80;21791;-87
2021/04/18 05:38:56;;;;;;;19.77;16.95;;;;;;;9.14;100.00;101217.77;1788266;78;21154;-87
2021/04/18 05:41:24;;;;;;;19.15;16.10;;;;;;;9.20;100.00;101220.47;1789635;78;21361;-87
2021/04/18 05:43:52;;;;;;;20.60;15.48;;;;;;;9.28;100.00;101224.75;1789579;78;21142;-86
2021/04/18 05:46:20;;;;;;;19.85;15.53;;;;;;;9.33;100.00;101218.83;1789610;78;21063;-87
2021/04/18 05:48:49;;;;;;;20.20;15.93;;;;;;;9.40;100.00;101220.58;1789723;78;21649;-87
2021/04/18 05:51:17;;;;;;;19.07;16.10;;;;;;;9.47;100.00;101220.57;1789830;79;21122;-87
2021/04/18 05:53:45;;;;;;;20.48;15.65;;;;;;;9.55;100.00;101219.64;1789662;78;21431;-87
2021/04/18 05:56:14;;;;;;;18.57;15.98;;;;;;;9.66;100.00;101216.85;1789535;78;21149;-87
2021/04/18 05:58:42;;;;;;;18.12;14.73;;;;;;;9.74;100.00;101221.11;1789585;78;21209;-87
2021/04/18 06:01:10;;;;;;;17.90;14.78;;;;;;;9.84;100.00;101214.42;1766983;80;21173;-87
2021/04/18 06:03:39;;;;;;;19.12;15.25;;;;;;;9.94;100.00;101212.06;1758470;80;21157;-87
2021/04/18 06:06:09;;;;;;;18.42;15.08;;;;;;;10.06;100.00;101212.58;1758608;80;21204;-87
2021/04/18 06:08:38;;;;;;;15.95;14.13;;;;;;;10.18;100.00;101210.97;1758449;80;21180;-87
2021/04/18 06:11:07;;;;;;;16.55;13.85;;;;;;;10.29;100.00;101216.81;1758439;80;21114;-87
2021/04/18 06:13:35;;;;;;;16.05;13.32;;;;;;;10.40;100.00;101216.14;1758442;80;21137;-87
2021/04/18 06:16:06;;;;;;;19.30;14.60;;;;;;;10.52;100.00;101219.72;1758573;80;21066;-87
2021/04/18 06:18:35;;;;;;;16.40;14.53;;;;;;;10.58;100.00;101215.40;1758583;80;21478;-87
2021/04/18 06:21:04;;;;;;;15.30;13.45;;;;;;;10.64;100.00;101204.57;1761668;79;21191;-88
2021/04/18 06:23:33;;;;;;;18.10;14.55;;;;;;;10.73;100.00;101203.97;1785701;79;21628;-88
2021/04/18 06:26:02;;;;;;;15.90;13.35;;;;;;;10.82;100.00;101204.29;1780247;80;21578;-88
2021/04/18 06:28:31;;;;;;;16.17;13.30;;;;;;;10.88;100.00;101210.39;1780180;79;21161;-88
2021/04/18 06:30:59;;;;;;;15.38;13.22;;;;;;;10.95;100.00;101207.73;1780332;79;21521;-88
2021/04/18 06:33:28;;;;;;;17.73;12.88;;;;;;;11.04;100.00;101203.69;1749992;80;21230;-88
2021/04/18 06:35:56;;;;;;;14.38;11.90;;;;;;;11.13;100.00;101200.46;1780305;79;21115;-88
2021/04/18 06:38:24;;;;;;;13.40;11.78;;;;;;;11.25;100.00;101209.67;1750305;80;21139;-88
2021/04/18 06:40:54;;;;;;;14.58;12.15;;;;;;;11.34;100.00;101202.52;1780168;80;21135;-88
2021/04/18 06:43:23;;;;;;;16.60;11.80;;;;;;;11.46;100.00;101200.84;1775226;80;22301;-88
2021/04/18 06:45:55;;;;;;;17.62;12.15;;;;;;;11.58;100.00;101201.27;1780156;79;21117;-87
2021/04/18 06:48:25;;;;;;;15.05;12.05;;;;;;;11.66;100.00;101201.56;1749022;79;21631;-88
2021/04/18 06:51:23;;;;;;;13.70;11.85;;;;;;;11.72;100.00;101199.48;1764601;79;21190;-86
2021/04/18 06:53:52;;;;;;;15.20;11.85;;;;;;;11.79;100.00;101202.02;1769387;80;21151;-87
2021/04/18 06:56:20;;;;;;;13.10;10.85;;;;;;;11.88;100.00;101200.52;1771651;79;22256;-87
2021/04/18 06:58:57;;;;;;;12.30;10.95;;;;;;;11.96;100.00;101204.72;1764050;80;21655;-87
2021/04/18 07:01:27;;;;;;;10.78;9.50;;;;;;;11.99;100.00;101196.72;1767595;79;21510;-87
2021/04/18 07:04:10;;;;;;;11.70;8.73;;;;;;;12.03;100.00;101197.33;1755724;80;21119;-88
2021/04/18 07:06:51;;;;;;;7.08;6.37;;;;;;;12.04;100.00;101202.42;1778757;79;21119;-87
2021/04/18 07:09:22;;;;;;;7.55;6.03;;;;;;;12.04;100.00;101198.99;1777554;79;21373;-87
2021/04/18 07:11:57;;;;;;;8.80;5.78;;;;;;;12.03;100.00;101205.16;1771142;80;21185;-88
2021/04/18 07:14:33;;;;;;;8.70;5.47;;;;;;;12.03;100.00;101202.55;1749152;80;21590;-87
2021/04/18 07:17:14;;;;;;;6.12;4.80;;;;;;;12.09;100.00;101200.80;1749273;81;22248;-87
2021/04/18 07:19:49;;;;;;;6.35;4.50;;;;;;;12.13;100.00;101196.55;1748846;80;21165;-87
2021/04/18 07:22:29;;;;;;;5.62;3.67;;;;;;;12.22;100.00;101196.33;1717256;80;22270;-87
2021/04/18 07:25:02;;;;;;;5.83;4.45;;;;;;;12.24;100.00;101198.86;1761962;79;21158;-87
2021/04/18 07:27:47;;;;;;;5.08;4.50;;;;;;;12.22;98.98;101195.03;1756622;81;21204;-87
2021/04/18 07:30:19;;;;;;;6.05;4.35;;;;;;;12.20;99.59;101195.64;1769359;80;21187;-87
2021/04/18 07:33:06;;;;;;;4.87;4.47;;;;;;;12.20;100.00;101193.03;1770057;79;21107;-87
2021/04/18 07:35:41;;;;;;;4.50;4.10;;;;;;;12.21;100.00;101189.92;1769975;80;21370;-87
2021/04/18 07:38:19;;;;;;;4.35;3.95;;;;;;;12.22;100.00;101194.20;1755933;81;21163;-87
2021/04/18 07:40:51;;;;;;;4.85;4.40;;;;;;;12.17;100.00;101193.72;1778437;80;21168;-87
2021/04/18 07:43:21;;;;;;;4.22;3.80;;;;;;;12.10;100.00;101192.02;1778364;80;21516;-87
2021/04/18 07:45:52;;;;;;;4.42;4.00;;;;;;;12.07;100.00;101190.92;1778541;80;21212;-87
2021/04/18 07:48:21;;;;;;;5.03;4.10;;;;;;;12.08;100.00;101188.23;1778671;80;21362;-87
2021/04/18 07:50:49;;;;;;;5.30;4.80;;;;;;;12.16;100.00;101188.95;1748524;80;21540;-87
2021/04/18 07:53:20;;;;;;;4.85;4.42;;;;;;;12.28;100.00;101184.16;1755867;80;21675;-87
2021/04/18 07:55:48;;;;;;;6.37;5.03;;;;;;;12.46;100.00;101184.58;1778597;80;21179;-87
2021/04/18 07:58:18;;;;;;;6.55;4.30;;;;;;;12.57;100.00;101181.16;1755855;80;21235;-87
2021/04/18 08:00:47;;;;;;;4.30;3.77;;;;;;;12.69;100.00;101185.13;1778393;80;21343;-87
2021/04/18 08:03:16;;;;;;;4.55;4.00;;;;;;;12.74;98.80;101171.22;1778412;80;21243;-87
2021/04/18 08:05:47;;;;;;;5.03;3.63;;;;;;;12.79;94.43;101176.92;1756202;80;21558;-87
2021/04/18 08:08:16;;;;;;;6.85;4.67;;;;;;;12.89;96.16;101167.44;1765121;79;21169;-87
2021/04/18 08:10:49;;;;;;;5.25;4.65;;;;;;;13.06;96.92;101163.52;1762971;79;21181;-87
2021/04/18 08:13:26;;;;;;;6.15;4.45;;;;;;;13.36;100.00;101162.58;1749245;80;21363;-87
2021/04/18 08:16:06;;;;;;;6.50;4.37;;;;;;;13.73;96.33;101158.41;1749307;80;21170;-87
2021/04/18 08:18:46;;;;;;;5.10;4.53;;;;;;;14.06;91.97;101155.30;1749485;80;21106;-87
2021/04/18 08:21:38;;;;;;;5.20;4.70;;;;;;;14.36;88.80;101148.03;1720094;81;21670;-87
2021/04/18 08:24:23;;;;;;;5.92;5.33;;;;;;;14.62;90.85;101145.03;1749221;80;21143;-87
2021/04/18 08:27:16;;;;;;;6.45;4.65;;;;;;;14.89;85.87;101149.41;1749355;80;22125;-87
2021/04/18 08:30:04;;;;;;;;;;;;;;;15.11;89.23;101148.41;1774355;79;21182;-87
2021/04/18 08:32:44;;;;;;;6.28;3.72;;;;;;;15.23;79.05;101147.33;1765279;79;20480;-87
2021/04/18 08:35:19;;;;;;;4.33;3.60;;;;;;;15.20;73.24;101138.91;1749244;81;21186;-87
2021/04/18 08:38:15;;;;;;;4.03;3.55;;;;;;;15.06;67.01;101137.49;1750536;79;21139;-87
2021/04/18 08:40:45;;;;;;;4.17;3.80;;;;;;;14.96;68.47;101136.97;1771385;79;21362;-87
2021/04/18 08:43:21;;;;;;;3.55;3.27;;;;;;;14.85;65.61;101129.67;1780225;79;21699;-87
2021/04/18 08:45:52;;;;;;;4.17;3.22;;;;;;;14.75;63.54;101134.84;1769114;79;21137;-86
2021/04/18 08:48:21;;;;;;;3.70;3.40;;;;;;;14.67;66.10;101132.39;1720960;80;21203;-87
2021/04/18 08:50:58;;;;;;;3.27;2.98;;;;;;;14.66;67.87;101132.53;1752919;79;21197;-87
2021/04/18 08:53:29;;;;;;;3.30;3.00;;;;;;;14.71;62.52;101125.59;1761102;80;21592;-87
2021/04/18 08:56:03;;;;;;;4.05;3.25;;;;;;;14.74;63.18;101128.78;1746977;81;21118;-87
2021/04/18 08:58:37;;;;;;;3.70;3.27;;;;;;;14.75;64.46;101127.83;1746592;80;21197;-87
2021/04/18 09:01:11;;;;;;;3.55;3.25;;;;;;;14.75;62.75;101128.29;1746750;80;21190;-87
2021/04/18 09:03:59;;;;;;;3.80;3.22;;;;;;;14.73;65.90;101128.42;1746770;80;21150;-86
2021/04/18 09:06:36;;;;;;;3.50;3.00;;;;;;;14.74;62.13;101129.28;1730728;79;22186;-87
2021/04/18 09:09:07;;;;;;;2.98;2.77;;;;;;;14.74;60.17;101124.85;1778467;79;21106;-88
2021/04/18 09:11:39;;;;;;;3.35;2.90;;;;;;;14.75;58.03;101125.20;1777521;79;21145;-88
2021/04/18 09:14:08;;;;;;;3.65;3.35;;;;;;;14.76;60.46;101121.63;1777390;79;21170;-88
2021/04/18 09:16:39;;;;;;;4.37;3.98;;;;;;;14.78;59.40;101120.99;1777499;79;21146;-87
2021/04/18 09:19:31;;;;;;;5.30;4.83;;;;;;;14.86;63.57;101127.41;1777632;79;21332;-86
2021/04/18 09:22:08;;;;;;;6.00;4.90;;;;;;;14.89;66.39;101126.66;1777476;80;21166;-86
2021/04/18 09:32:45;;;;;;;5.20;3.83;;;;;;;14.66;67.38;101121.55;1776840;80;21152;-85
2021/04/18 09:39:19;;;;;;;6.17;4.67;;;;;;;14.55;64.45;101115.52;1779333;80;21135;-89
2021/04/18 09:41:48;;;;;;;6.42;4.90;;;;;;;14.42;67.35;101113.95;1756517;81;21127;-90
2021/04/18 09:44:34;;;;;;;5.40;4.70;;;;;;;14.38;64.87;101119.57;1779239;80;21132;-89
2021/04/18 09:47:10;;;;;;;6.03;5.47;;;;;;;14.35;67.56;101116.73;1778864;80;21180;-89
2021/04/18 09:49:52;;;;;;;6.12;5.03;;;;;;;14.29;68.24;101109.39;1750908;81;21560;-90
2021/04/18 09:52:37;;;;;;;6.28;5.42;;;;;;;14.26;67.97;101117.00;1779049;80;21155;-89
2021/04/18 09:55:25;;;;;;;5.58;5.08;;;;;;;14.22;69.10;101110.86;1779272;80;21537;-90
2021/04/18 09:57:57;;;;;;;5.90;4.87;;;;;;;14.18;67.85;101108.48;1778946;80;21127;-89
2021/04/18 10:00:36;;;;;;;5.72;5.12;;;;;;;14.16;69.75;101113.50;1778926;80;21144;-89
2021/04/18 10:07:28;;;;;;;5.42;4.58;;;;;;;14.28;69.25;101105.11;1780062;79;21615;-85
2021/04/18 10:19:21;;;;;;;5.87;4.87;;;;;;;15.23;63.07;101097.98;1779660;80;21152;-86
2021/04/18 10:29:48;;;;;;;4.55;4.15;;;;;;;15.51;58.49;101090.30;1702059;84;21145;-86
2021/04/18 10:36:40;;;;;;;5.40;4.53;;;;;;;15.65;60.01;101090.38;1700093;82;21176;-85
2021/04/18 10:43:32;;;;;;;4.20;3.80;;;;;;;15.70;55.78;101079.83;1722571;83;21167;-85
2021/04/18 10:50:25;;;;;;;6.10;4.75;;;;;;;16.31;54.79;101083.61;1730472;83;21172;-85
2021/04/18 10:57:17;;;;;;;6.42;4.72;;;;;;;15.96;49.56;101066.64;1757004;80;21255;-85
2021/04/18 11:04:10;;;;;;;4.60;3.42;;;;;;;16.01;50.72;101067.08;1758845;81;21121;-85
2021/04/18 11:11:05;;;;;;;5.35;3.77;;;;;;;15.96;51.53;101064.86;1730546;83;21144;-85
2021/04/18 11:17:56;;;;;;;5.90;4.42;;;;;;;15.91;52.61;101059.18;1730467;83;21137;-85
2021/04/18 11:20:53;;;;;;;5.28;4.00;;;;;;;15.86;53.20;101058.78;1730645;83;21100;-85
2021/04/18 11:27:12;;;;;;;5.55;4.58;;;;;;;15.86;52.25;101060.09;1794646;78;21184;-85
2021/04/18 11:30:10;;;;;;;5.60;4.87;;;;;;;15.71;51.72;101051.30;1796512;79;21153;-85
2021/04/18 11:41:24;;;;;;;6.10;4.67;;;;;;;15.84;52.80;101035.77;1796267;78;21165;-87
2021/04/18 11:43:54;;;;;;;5.97;5.05;;;;;;;15.97;51.96;101029.75;1795522;78;21556;-87
2021/04/18 11:46:22;;;;;;;5.85;5.00;;;;;;;15.99;48.26;101022.55;1795437;79;21429;-88
2021/04/18 11:48:51;;;;;;;7.80;5.40;;;;;;;15.99;50.24;101028.30;1795367;79;21145;-88
2021/04/18 11:51:20;;;;;;;15.35;6.80;;;;;;;16.12;52.25;101029.31;1795426;78;21133;-88
2021/04/18 11:53:48;;;;;;;9.15;6.60;;;;;;;16.29;52.53;101031.67;1795370;79;21091;-88
2021/04/18 11:56:17;;;;;;;6.30;5.70;;;;;;;16.48;50.97;101026.84;1795362;79;21174;-88
2021/04/18 11:58:46;;;;;;;7.35;5.35;;;;;;;16.55;48.81;101025.29;1775711;79;22104;-88
2021/04/18 12:01:14;;;;;;;6.47;5.70;;;;;;;16.56;48.43;101020.37;1795365;79;21213;-86
2021/04/18 12:03:43;;;;;;;5.83;5.03;;;;;;;16.47;49.64;101017.30;1795394;79;21129;-87
2021/04/18 12:06:12;;;;;;;5.33;4.62;;;;;;;16.38;50.73;101018.50;1775828;79;21228;-88
2021/04/18 12:08:40;;;;;;;4.62;4.10;;;;;;;16.35;51.13;101024.06;1795615;79;21215;-88
2021/04/18 12:11:10;;;;;;;6.20;4.80;;;;;;;16.35;51.36;101026.69;1795571;79;21360;-89
2021/04/18 12:13:39;;;;;;;4.85;4.37;;;;;;;16.34;50.73;101026.34;1795959;79;21177;-89
2021/04/18 12:16:10;;;;;;;5.28;4.70;;;;;;;16.29;50.54;101024.64;1795725;79;21149;-89
2021/04/18 12:18:38;;;;;;;5.03;4.53;;;;;;;16.24;49.92;101016.34;1795663;79;21582;-89
2021/04/18 12:21:07;;;;;;;6.85;5.45;;;;;;;16.29;52.81;101010.66;1795687;79;21102;-89
2021/04/18 12:23:37;;;;;;;9.15;6.45;;;;;;;16.40;54.71;101004.73;1795644;79;21193;-89
2021/04/18 12:26:07;;;;;;;11.45;7.85;;;;;;;16.52;53.87;100999.31;1795594;79;21082;-89
2021/04/18 12:28:35;;;;;;;9.63;7.92;;;;;;;16.56;51.59;101001.50;1768149;79;21146;-89
2021/04/18 12:31:05;;;;;;;10.95;9.13;;;;;;;16.56;52.40;101001.50;1793338;78;21181;-89
2021/04/18 12:33:34;;;;;;;12.47;9.40;;;;;;;16.54;52.67;101003.44;1724715;82;21143;-89
2021/04/18 12:36:05;;;;;;;10.25;8.33;;;;;;;16.60;52.83;100994.62;1687437;83;21618;-89
2021/04/18 12:38:39;;;;;;;10.15;8.20;;;;;;;16.66;53.31;100993.56;1710134;82;21565;-89
2021/04/18 12:41:10;;;;;;;13.35;8.68;;;;;;;16.66;51.68;100996.19;1710147;82;21076;-89
2021/04/18 12:43:38;;;;;;;;;;;;;;;16.57;50.75;100995.75;1690050;82;21209;-89
2021/04/18 12:46:08;;;;;;;14.70;9.20;;;;;;;16.47;49.18;100992.33;1739884;81;20215;-89
2021/04/18 12:48:37;;;;;;;14.03;10.25;;;;;;;16.43;51.84;100998.36;1739783;81;22352;-89
2021/04/18 12:51:07;;;;;;;12.03;9.78;;;;;;;16.44;52.42;100992.63;1726007;81;21179;-89
2021/04/18 12:53:41;;;;;;;11.80;9.70;;;;;;;16.52;54.16;100990.11;1725987;81;21152;-90